sensor_id;sensor_type;location;lat;lon;timestamp;temperature;humidity
51559;DHT22;61650;48.882;2.092;2022-10-31T00:02:17;11.00;90.20
51559;DHT22;61650;48.882;2.092;2022-10-31T00:04:43;10.80;91.10
51559;DHT22;61650;48.882;2.092;2022-10-31T00:07:08;10.70;91.50
51559;DHT22;61650;48.882;2.092;2022-10-31T00:09:34;10.80;91.80
51559;DHT22;61650;48.882;2.092;2022-10-31T00:11:59;10.80;91.60
51559;DHT22;61650;48.882;2.092;2022-10-31T00:14:25;10.70;91.50
51559;DHT22;61650;48.882;2.092;2022-10-31T00:16:50;10.70;92.20
51559;DHT22;61650;48.882;2.092;2022-10-31T00:19:16;10.80;92.00
51559;DHT22;61650;48.882;2.092;2022-10-31T00:21:41;10.90;91.60
51559;DHT22;61650;48.882;2.092;2022-10-31T00:24:07;10.90;90.70
51559;DHT22;61650;48.882;2.092;2022-10-31T00:26:33;10.80;90.60
51559;DHT22;61650;48.882;2.092;2022-10-31T00:28:59;10.80;91.10
51559;DHT22;61650;48.882;2.092;2022-10-31T00:31:25;10.80;91.20
51559;DHT22;61650;48.882;2.092;2022-10-31T00:33:50;10.80;91.00
51559;DHT22;61650;48.882;2.092;2022-10-31T00:36:18;10.70;90.50
51559;DHT22;61650;48.882;2.092;2022-10-31T00:38:44;10.60;90.60
51559;DHT22;61650;48.882;2.092;2022-10-31T00:41:11;10.50;91.00
51559;DHT22;61650;48.882;2.092;2022-10-31T00:43:37;10.40;91.20
51559;DHT22;61650;48.882;2.092;2022-10-31T00:46:03;10.30;91.60
51559;DHT22;61650;48.882;2.092;2022-10-31T00:48:29;10.30;91.80
51559;DHT22;61650;48.882;2.092;2022-10-31T00:50:55;10.30;91.50
51559;DHT22;61650;48.882;2.092;2022-10-31T00:53:21;10.30;91.50
51559;DHT22;61650;48.882;2.092;2022-10-31T00:55:46;10.30;91.40
51559;DHT22;61650;48.882;2.092;2022-10-31T00:58:12;10.40;91.40
51559;DHT22;61650;48.882;2.092;2022-10-31T01:00:38;10.30;90.80
51559;DHT22;61650;48.882;2.092;2022-10-31T01:03:03;10.30;91.00
51559;DHT22;61650;48.882;2.092;2022-10-31T01:05:29;10.30;91.00
51559;DHT22;61650;48.882;2.092;2022-10-31T01:07:55;10.30;91.00
51559;DHT22;61650;48.882;2.092;2022-10-31T01:10:20;10.30;91.00
51559;DHT22;61650;48.882;2.092;2022-10-31T01:12:47;10.30;91.10
51559;DHT22;61650;48.882;2.092;2022-10-31T01:15:19;10.30;90.80
51559;DHT22;61650;48.882;2.092;2022-10-31T01:17:45;10.20;90.90
51559;DHT22;61650;48.882;2.092;2022-10-31T01:20:12;10.20;91.20
51559;DHT22;61650;48.882;2.092;2022-10-31T01:22:38;10.20;91.30
51559;DHT22;61650;48.882;2.092;2022-10-31T01:25:04;10.20;91.30
51559;DHT22;61650;48.882;2.092;2022-10-31T01:27:31;10.20;91.20
51559;DHT22;61650;48.882;2.092;2022-10-31T01:29:56;10.20;91.20
51559;DHT22;61650;48.882;2.092;2022-10-31T01:32:22;10.20;91.40
51559;DHT22;61650;48.882;2.092;2022-10-31T01:34:48;10.30;91.10
51559;DHT22;61650;48.882;2.092;2022-10-31T01:37:13;10.50;90.50
51559;DHT22;61650;48.882;2.092;2022-10-31T01:39:39;10.50;90.10
51559;DHT22;61650;48.882;2.092;2022-10-31T01:42:05;10.50;90.30
51559;DHT22;61650;48.882;2.092;2022-10-31T01:47:05;10.40;90.80
51559;DHT22;61650;48.882;2.092;2022-10-31T01:49:51;10.50;90.80
51559;DHT22;61650;48.882;2.092;2022-10-31T01:52:25;10.60;90.30
51559;DHT22;61650;48.882;2.092;2022-10-31T01:55:13;10.50;90.60
51559;DHT22;61650;48.882;2.092;2022-10-31T01:57:42;10.60;90.80
51559;DHT22;61650;48.882;2.092;2022-10-31T02:00:10;10.70;90.70
51559;DHT22;61650;48.882;2.092;2022-10-31T02:02:36;10.80;89.90
51559;DHT22;61650;48.882;2.092;2022-10-31T02:05:06;10.80;90.10
51559;DHT22;61650;48.882;2.092;2022-10-31T02:10:06;10.90;90.10
51559;DHT22;61650;48.882;2.092;2022-10-31T02:12:32;10.90;89.80
51559;DHT22;61650;48.882;2.092;2022-10-31T02:15:01;10.90;89.90
51559;DHT22;61650;48.882;2.092;2022-10-31T02:17:29;10.90;89.80
51559;DHT22;61650;48.882;2.092;2022-10-31T02:20:07;10.90;90.50
51559;DHT22;61650;48.882;2.092;2022-10-31T02:22:39;11.00;90.50
51559;DHT22;61650;48.882;2.092;2022-10-31T02:34:26;11.00;90.70
51559;DHT22;61650;48.882;2.092;2022-10-31T02:37:42;11.10;90.90
51559;DHT22;61650;48.882;2.092;2022-10-31T02:42:35;11.10;90.80
51559;DHT22;61650;48.882;2.092;2022-10-31T02:45:11;11.20;90.60
51559;DHT22;61650;48.882;2.092;2022-10-31T02:47:40;11.30;90.50
51559;DHT22;61650;48.882;2.092;2022-10-31T02:50:12;11.30;90.00
51559;DHT22;61650;48.882;2.092;2022-10-31T02:52:38;11.30;89.90
51559;DHT22;61650;48.882;2.092;2022-10-31T02:57:47;11.20;90.50
51559;DHT22;61650;48.882;2.092;2022-10-31T03:00:14;11.30;90.80
51559;DHT22;61650;48.882;2.092;2022-10-31T03:08:23;11.10;91.80
51559;DHT22;61650;48.882;2.092;2022-10-31T03:13:49;11.20;91.80
51559;DHT22;61650;48.882;2.092;2022-10-31T03:16:40;11.20;91.70
51559;DHT22;61650;48.882;2.092;2022-10-31T03:19:10;11.20;91.70
51559;DHT22;61650;48.882;2.092;2022-10-31T03:21:53;11.30;91.60
51559;DHT22;61650;48.882;2.092;2022-10-31T03:24:22;11.20;91.70
51559;DHT22;61650;48.882;2.092;2022-10-31T03:26:52;11.20;91.90
51559;DHT22;61650;48.882;2.092;2022-10-31T03:29:21;11.30;91.80
51559;DHT22;61650;48.882;2.092;2022-10-31T03:31:52;11.30;91.60
51559;DHT22;61650;48.882;2.092;2022-10-31T03:34:19;11.30;91.20
51559;DHT22;61650;48.882;2.092;2022-10-31T03:36:48;11.30;90.70
51559;DHT22;61650;48.882;2.092;2022-10-31T03:39:16;11.30;91.20
51559;DHT22;61650;48.882;2.092;2022-10-31T03:41:46;11.20;91.70
51559;DHT22;61650;48.882;2.092;2022-10-31T03:44:16;11.20;91.50
51559;DHT22;61650;48.882;2.092;2022-10-31T03:46:43;11.20;91.40
51559;DHT22;61650;48.882;2.092;2022-10-31T03:49:09;11.20;92.00
51559;DHT22;61650;48.882;2.092;2022-10-31T03:51:58;11.30;92.00
51559;DHT22;61650;48.882;2.092;2022-10-31T03:57:00;11.30;91.60
51559;DHT22;61650;48.882;2.092;2022-10-31T03:59:33;11.30;91.70
51559;DHT22;61650;48.882;2.092;2022-10-31T04:02:05;11.40;91.70
51559;DHT22;61650;48.882;2.092;2022-10-31T04:04:32;11.40;91.40
51559;DHT22;61650;48.882;2.092;2022-10-31T04:07:00;11.40;91.20
51559;DHT22;61650;48.882;2.092;2022-10-31T04:09:27;11.30;92.00
51559;DHT22;61650;48.882;2.092;2022-10-31T04:11:56;11.20;92.30
51559;DHT22;61650;48.882;2.092;2022-10-31T04:14:27;11.20;92.30
51559;DHT22;61650;48.882;2.092;2022-10-31T04:16:56;11.20;92.20
51559;DHT22;61650;48.882;2.092;2022-10-31T04:19:22;11.30;92.10
51559;DHT22;61650;48.882;2.092;2022-10-31T04:21:47;11.40;91.70
51559;DHT22;61650;48.882;2.092;2022-10-31T04:24:13;11.40;91.80
51559;DHT22;61650;48.882;2.092;2022-10-31T04:26:38;11.40;91.50
51559;DHT22;61650;48.882;2.092;2022-10-31T04:29:04;11.30;91.80
51559;DHT22;61650;48.882;2.092;2022-10-31T04:31:30;11.30;91.90
51559;DHT22;61650;48.882;2.092;2022-10-31T04:33:55;11.30;91.90
51559;DHT22;61650;48.882;2.092;2022-10-31T04:36:21;11.30;92.00
51559;DHT22;61650;48.882;2.092;2022-10-31T04:38:46;11.30;92.00
51559;DHT22;61650;48.882;2.092;2022-10-31T04:41:12;11.30;92.10
51559;DHT22;61650;48.882;2.092;2022-10-31T04:43:37;11.40;91.90
51559;DHT22;61650;48.882;2.092;2022-10-31T04:46:04;11.30;92.00
51559;DHT22;61650;48.882;2.092;2022-10-31T04:48:29;11.30;92.30
51559;DHT22;61650;48.882;2.092;2022-10-31T04:51:02;11.30;92.40
51559;DHT22;61650;48.882;2.092;2022-10-31T04:53:28;11.30;92.20
51559;DHT22;61650;48.882;2.092;2022-10-31T04:55:54;11.30;92.00
51559;DHT22;61650;48.882;2.092;2022-10-31T04:58:20;11.40;91.90
51559;DHT22;61650;48.882;2.092;2022-10-31T05:00:45;11.50;91.60
51559;DHT22;61650;48.882;2.092;2022-10-31T05:03:11;11.40;91.30
51559;DHT22;61650;48.882;2.092;2022-10-31T05:05:36;11.40;91.50
51559;DHT22;61650;48.882;2.092;2022-10-31T05:08:02;11.50;91.40
51559;DHT22;61650;48.882;2.092;2022-10-31T05:10:29;11.40;91.60
51559;DHT22;61650;48.882;2.092;2022-10-31T05:12:58;11.40;92.00
51559;DHT22;61650;48.882;2.092;2022-10-31T05:15:25;11.40;92.00
51559;DHT22;61650;48.882;2.092;2022-10-31T05:17:51;11.50;91.90
51559;DHT22;61650;48.882;2.092;2022-10-31T05:20:20;11.50;91.70
51559;DHT22;61650;48.882;2.092;2022-10-31T05:22:47;11.60;91.50
51559;DHT22;61650;48.882;2.092;2022-10-31T05:25:14;11.50;91.30
51559;DHT22;61650;48.882;2.092;2022-10-31T05:27:44;11.60;91.40
51559;DHT22;61650;48.882;2.092;2022-10-31T05:30:12;11.50;91.30
51559;DHT22;61650;48.882;2.092;2022-10-31T05:32:44;11.50;91.30
51559;DHT22;61650;48.882;2.092;2022-10-31T05:35:15;11.50;91.50
51559;DHT22;61650;48.882;2.092;2022-10-31T05:37:41;11.40;91.90
51559;DHT22;61650;48.882;2.092;2022-10-31T05:40:08;11.40;92.10
51559;DHT22;61650;48.882;2.092;2022-10-31T05:42:35;11.40;92.30
51559;DHT22;61650;48.882;2.092;2022-10-31T05:45:01;11.50;92.00
51559;DHT22;61650;48.882;2.092;2022-10-31T05:47:27;11.40;92.30
51559;DHT22;61650;48.882;2.092;2022-10-31T05:49:52;11.50;92.30
51559;DHT22;61650;48.882;2.092;2022-10-31T05:52:19;11.50;92.20
51559;DHT22;61650;48.882;2.092;2022-10-31T05:54:45;11.50;92.00
51559;DHT22;61650;48.882;2.092;2022-10-31T05:57:10;11.50;92.30
51559;DHT22;61650;48.882;2.092;2022-10-31T05:59:36;11.50;92.60
51559;DHT22;61650;48.882;2.092;2022-10-31T06:02:02;11.60;92.50
51559;DHT22;61650;48.882;2.092;2022-10-31T06:04:27;11.60;92.30
51559;DHT22;61650;48.882;2.092;2022-10-31T06:06:53;11.60;91.80
51559;DHT22;61650;48.882;2.092;2022-10-31T06:09:18;11.60;92.00
51559;DHT22;61650;48.882;2.092;2022-10-31T06:11:44;11.50;92.00
51559;DHT22;61650;48.882;2.092;2022-10-31T06:14:09;11.50;92.30
51559;DHT22;61650;48.882;2.092;2022-10-31T06:16:35;11.60;92.10
51559;DHT22;61650;48.882;2.092;2022-10-31T06:19:00;11.60;92.30
51559;DHT22;61650;48.882;2.092;2022-10-31T06:21:26;11.60;92.30
51559;DHT22;61650;48.882;2.092;2022-10-31T06:23:52;11.70;92.00
51559;DHT22;61650;48.882;2.092;2022-10-31T06:26:17;11.70;92.00
51559;DHT22;61650;48.882;2.092;2022-10-31T06:28:43;11.70;92.00
51559;DHT22;61650;48.882;2.092;2022-10-31T06:31:08;11.80;91.70
51559;DHT22;61650;48.882;2.092;2022-10-31T06:33:34;11.80;91.40
51559;DHT22;61650;48.882;2.092;2022-10-31T06:36:00;11.70;91.60
51559;DHT22;61650;48.882;2.092;2022-10-31T06:38:27;11.70;91.70
51559;DHT22;61650;48.882;2.092;2022-10-31T06:40:53;11.70;91.90
51559;DHT22;61650;48.882;2.092;2022-10-31T06:43:20;11.70;92.00
51559;DHT22;61650;48.882;2.092;2022-10-31T06:45:46;11.70;91.70
51559;DHT22;61650;48.882;2.092;2022-10-31T06:48:11;11.70;92.00
51559;DHT22;61650;48.882;2.092;2022-10-31T06:50:37;11.80;91.80
51559;DHT22;61650;48.882;2.092;2022-10-31T06:53:03;11.80;91.50
51559;DHT22;61650;48.882;2.092;2022-10-31T06:55:28;11.80;91.20
51559;DHT22;61650;48.882;2.092;2022-10-31T06:57:58;11.80;91.20
51559;DHT22;61650;48.882;2.092;2022-10-31T07:00:25;11.70;91.50
51559;DHT22;61650;48.882;2.092;2022-10-31T07:03:00;11.70;91.90
51559;DHT22;61650;48.882;2.092;2022-10-31T07:05:26;11.80;91.70
51559;DHT22;61650;48.882;2.092;2022-10-31T07:07:54;11.80;91.40
51559;DHT22;61650;48.882;2.092;2022-10-31T07:10:21;11.80;91.70
51559;DHT22;61650;48.882;2.092;2022-10-31T07:12:47;11.80;92.00
51559;DHT22;61650;48.882;2.092;2022-10-31T07:15:13;11.80;92.10
51559;DHT22;61650;48.882;2.092;2022-10-31T07:17:38;11.90;92.10
51559;DHT22;61650;48.882;2.092;2022-10-31T07:20:04;11.90;92.10
51559;DHT22;61650;48.882;2.092;2022-10-31T07:22:36;12.00;91.80
51559;DHT22;61650;48.882;2.092;2022-10-31T07:25:02;12.10;91.50
51559;DHT22;61650;48.882;2.092;2022-10-31T07:27:28;12.00;91.60
51559;DHT22;61650;48.882;2.092;2022-10-31T07:29:53;12.00;92.00
51559;DHT22;61650;48.882;2.092;2022-10-31T07:32:19;12.10;91.70
51559;DHT22;61650;48.882;2.092;2022-10-31T07:34:44;12.10;91.60
51559;DHT22;61650;48.882;2.092;2022-10-31T07:37:10;12.10;91.70
51559;DHT22;61650;48.882;2.092;2022-10-31T07:39:36;12.20;91.60
51559;DHT22;61650;48.882;2.092;2022-10-31T07:42:01;12.20;91.50
51559;DHT22;61650;48.882;2.092;2022-10-31T07:44:27;12.30;91.30
51559;DHT22;61650;48.882;2.092;2022-10-31T07:46:52;12.30;91.10
51559;DHT22;61650;48.882;2.092;2022-10-31T07:49:18;12.20;91.10
51559;DHT22;61650;48.882;2.092;2022-10-31T07:51:43;12.20;91.30
51559;DHT22;61650;48.882;2.092;2022-10-31T07:54:09;12.20;91.40
51559;DHT22;61650;48.882;2.092;2022-10-31T07:56:34;12.20;91.50
51559;DHT22;61650;48.882;2.092;2022-10-31T07:59:00;12.30;91.70
51559;DHT22;61650;48.882;2.092;2022-10-31T08:01:26;12.30;91.70
51559;DHT22;61650;48.882;2.092;2022-10-31T08:03:51;12.40;91.60
51559;DHT22;61650;48.882;2.092;2022-10-31T08:06:17;12.50;91.50
51559;DHT22;61650;48.882;2.092;2022-10-31T08:08:42;12.50;91.40
51559;DHT22;61650;48.882;2.092;2022-10-31T08:11:08;12.60;91.30
51559;DHT22;61650;48.882;2.092;2022-10-31T08:13:33;12.60;91.00
51559;DHT22;61650;48.882;2.092;2022-10-31T08:16:00;12.60;90.50
51559;DHT22;61650;48.882;2.092;2022-10-31T08:18:29;12.60;90.80
51559;DHT22;61650;48.882;2.092;2022-10-31T08:20:56;12.70;91.10
51559;DHT22;61650;48.882;2.092;2022-10-31T08:23:21;12.70;90.90
51559;DHT22;61650;48.882;2.092;2022-10-31T08:25:47;12.80;90.80
51559;DHT22;61650;48.882;2.092;2022-10-31T08:28:13;12.80;90.80
51559;DHT22;61650;48.882;2.092;2022-10-31T08:30:40;12.90;90.90
51559;DHT22;61650;48.882;2.092;2022-10-31T08:33:14;12.90;90.90
51559;DHT22;61650;48.882;2.092;2022-10-31T08:35:41;13.00;90.60
51559;DHT22;61650;48.882;2.092;2022-10-31T08:38:09;13.00;90.50
51559;DHT22;61650;48.882;2.092;2022-10-31T08:40:35;13.10;90.50
51559;DHT22;61650;48.882;2.092;2022-10-31T08:43:13;13.20;90.20
51559;DHT22;61650;48.882;2.092;2022-10-31T08:45:39;13.20;90.10
51559;DHT22;61650;48.882;2.092;2022-10-31T08:48:09;13.20;89.90
51559;DHT22;61650;48.882;2.092;2022-10-31T08:50:35;13.30;89.70
51559;DHT22;61650;48.882;2.092;2022-10-31T08:53:03;13.30;89.50
51559;DHT22;61650;48.882;2.092;2022-10-31T08:55:28;13.40;89.80
51559;DHT22;61650;48.882;2.092;2022-10-31T08:57:55;13.40;89.40
51559;DHT22;61650;48.882;2.092;2022-10-31T09:00:21;13.50;88.90
51559;DHT22;61650;48.882;2.092;2022-10-31T09:02:47;13.60;88.90
51559;DHT22;61650;48.882;2.092;2022-10-31T09:05:13;13.60;88.80
51559;DHT22;61650;48.882;2.092;2022-10-31T09:07:38;13.70;88.90
51559;DHT22;61650;48.882;2.092;2022-10-31T09:10:04;13.70;88.50
51559;DHT22;61650;48.882;2.092;2022-10-31T09:12:30;13.70;88.70
51559;DHT22;61650;48.882;2.092;2022-10-31T09:14:55;13.70;88.40
51559;DHT22;61650;48.882;2.092;2022-10-31T09:17:21;13.70;88.20
51559;DHT22;61650;48.882;2.092;2022-10-31T09:19:46;13.70;88.10
51559;DHT22;61650;48.882;2.092;2022-10-31T09:22:12;13.90;88.40
51559;DHT22;61650;48.882;2.092;2022-10-31T09:24:38;13.90;88.20
51559;DHT22;61650;48.882;2.092;2022-10-31T09:27:03;14.00;87.50
51559;DHT22;61650;48.882;2.092;2022-10-31T09:29:29;14.10;87.80
51559;DHT22;61650;48.882;2.092;2022-10-31T09:31:56;14.20;87.30
51559;DHT22;61650;48.882;2.092;2022-10-31T09:34:22;14.30;87.30
51559;DHT22;61650;48.882;2.092;2022-10-31T09:36:47;14.50;85.90
51559;DHT22;61650;48.882;2.092;2022-10-31T09:39:13;14.80;85.90
51559;DHT22;61650;48.882;2.092;2022-10-31T09:42:04;15.00;84.90
51559;DHT22;61650;48.882;2.092;2022-10-31T09:44:58;15.10;83.70
51559;DHT22;61650;48.882;2.092;2022-10-31T09:50:22;15.50;82.70
51559;DHT22;61650;48.882;2.092;2022-10-31T09:53:05;15.60;82.20
51559;DHT22;61650;48.882;2.092;2022-10-31T09:58:02;15.70;82.50
51559;DHT22;61650;48.882;2.092;2022-10-31T10:00:28;15.70;82.10
51559;DHT22;61650;48.882;2.092;2022-10-31T10:06:12;15.90;81.20
51559;DHT22;61650;48.882;2.092;2022-10-31T10:08:39;16.00;80.40
51559;DHT22;61650;48.882;2.092;2022-10-31T10:19:39;16.30;79.90
51559;DHT22;61650;48.882;2.092;2022-10-31T10:22:40;16.30;79.00
51559;DHT22;61650;48.882;2.092;2022-10-31T10:25:33;16.30;78.70
51559;DHT22;61650;48.882;2.092;2022-10-31T10:30:54;16.30;80.00
51559;DHT22;61650;48.882;2.092;2022-10-31T10:33:28;16.30;79.70
51559;DHT22;61650;48.882;2.092;2022-10-31T10:36:02;16.40;80.00
51559;DHT22;61650;48.882;2.092;2022-10-31T10:38:36;16.40;79.70
51559;DHT22;61650;48.882;2.092;2022-10-31T10:41:06;16.40;78.90
51559;DHT22;61650;48.882;2.092;2022-10-31T10:43:37;16.50;79.00
51559;DHT22;61650;48.882;2.092;2022-10-31T10:56:51;16.90;77.40
51559;DHT22;61650;48.882;2.092;2022-10-31T10:59:20;17.00;77.40
51559;DHT22;61650;48.882;2.092;2022-10-31T11:01:48;17.10;77.20
51559;DHT22;61650;48.882;2.092;2022-10-31T11:04:35;17.10;76.90
51559;DHT22;61650;48.882;2.092;2022-10-31T11:07:07;17.00;75.40
51559;DHT22;61650;48.882;2.092;2022-10-31T11:09:34;17.10;76.30
51559;DHT22;61650;48.882;2.092;2022-10-31T11:12:05;17.10;76.10
51559;DHT22;61650;48.882;2.092;2022-10-31T11:14:42;17.10;75.60
51559;DHT22;61650;48.882;2.092;2022-10-31T11:17:39;17.10;75.40
51559;DHT22;61650;48.882;2.092;2022-10-31T11:20:32;17.00;75.10
51559;DHT22;61650;48.882;2.092;2022-10-31T11:23:16;17.00;74.40
51559;DHT22;61650;48.882;2.092;2022-10-31T11:25:49;17.20;75.40
51559;DHT22;61650;48.882;2.092;2022-10-31T11:28:15;17.30;74.90
51559;DHT22;61650;48.882;2.092;2022-10-31T11:30:51;17.40;74.30
51559;DHT22;61650;48.882;2.092;2022-10-31T11:33:36;17.60;72.60
51559;DHT22;61650;48.882;2.092;2022-10-31T11:36:24;17.70;70.90
51559;DHT22;61650;48.882;2.092;2022-10-31T11:38:51;17.80;72.20
51559;DHT22;61650;48.882;2.092;2022-10-31T11:41:29;17.70;72.50
51559;DHT22;61650;48.882;2.092;2022-10-31T11:44:01;17.80;70.90
51559;DHT22;61650;48.882;2.092;2022-10-31T11:46:51;18.00;70.60
51559;DHT22;61650;48.882;2.092;2022-10-31T11:51:56;17.90;70.00
51559;DHT22;61650;48.882;2.092;2022-10-31T11:54:29;18.00;70.00
51559;DHT22;61650;48.882;2.092;2022-10-31T11:56:56;17.90;70.40
51559;DHT22;61650;48.882;2.092;2022-10-31T12:01:51;17.90;69.70
51559;DHT22;61650;48.882;2.092;2022-10-31T12:04:17;17.90;71.10
51559;DHT22;61650;48.882;2.092;2022-10-31T12:06:45;17.90;71.10
51559;DHT22;61650;48.882;2.092;2022-10-31T12:11:57;18.10;70.50
51559;DHT22;61650;48.882;2.092;2022-10-31T12:17:23;18.00;70.40
51559;DHT22;61650;48.882;2.092;2022-10-31T12:28:19;18.20;70.90
51559;DHT22;61650;48.882;2.092;2022-10-31T12:31:08;18.30;69.80
51559;DHT22;61650;48.882;2.092;2022-10-31T12:34:14;18.40;70.30
51559;DHT22;61650;48.882;2.092;2022-10-31T12:37:05;18.30;69.80
51559;DHT22;61650;48.882;2.092;2022-10-31T12:42:17;18.40;70.90
51559;DHT22;61650;48.882;2.092;2022-10-31T12:51:03;18.50;70.20
51559;DHT22;61650;48.882;2.092;2022-10-31T12:58:37;18.70;68.80
51559;DHT22;61650;48.882;2.092;2022-10-31T13:01:12;18.70;69.40
51559;DHT22;61650;48.882;2.092;2022-10-31T13:04:03;18.70;69.60
51559;DHT22;61650;48.882;2.092;2022-10-31T13:06:44;18.70;68.60
51559;DHT22;61650;48.882;2.092;2022-10-31T13:09:17;18.70;69.40
51559;DHT22;61650;48.882;2.092;2022-10-31T13:11:47;18.60;69.30
51559;DHT22;61650;48.882;2.092;2022-10-31T13:16:47;18.60;70.50
51559;DHT22;61650;48.882;2.092;2022-10-31T13:19:34;18.60;70.70
51559;DHT22;61650;48.882;2.092;2022-10-31T13:22:06;18.60;70.70
51559;DHT22;61650;48.882;2.092;2022-10-31T13:24:55;18.60;70.80
51559;DHT22;61650;48.882;2.092;2022-10-31T13:30:02;18.60;71.40
51559;DHT22;61650;48.882;2.092;2022-10-31T13:32:42;18.60;71.40
51559;DHT22;61650;48.882;2.092;2022-10-31T13:46:39;18.70;70.70
51559;DHT22;61650;48.882;2.092;2022-10-31T13:51:49;18.80;70.60
51559;DHT22;61650;48.882;2.092;2022-10-31T13:56:50;18.70;71.10
51559;DHT22;61650;48.882;2.092;2022-10-31T13:59:25;18.90;70.60
51559;DHT22;61650;48.882;2.092;2022-10-31T14:02:02;18.90;70.50
51559;DHT22;61650;48.882;2.092;2022-10-31T14:04:45;18.90;69.60
51559;DHT22;61650;48.882;2.092;2022-10-31T14:07:17;19.00;70.10
51559;DHT22;61650;48.882;2.092;2022-10-31T14:12:44;19.80;68.00
51559;DHT22;61650;48.882;2.092;2022-10-31T14:15:23;20.60;65.70
51559;DHT22;61650;48.882;2.092;2022-10-31T14:17:55;21.10;63.10
51559;DHT22;61650;48.882;2.092;2022-10-31T14:20:34;21.30;63.80
51559;DHT22;61650;48.882;2.092;2022-10-31T14:25:52;21.60;62.40
51559;DHT22;61650;48.882;2.092;2022-10-31T14:28:20;21.50;63.90
51559;DHT22;61650;48.882;2.092;2022-10-31T14:30:57;21.20;64.90
51559;DHT22;61650;48.882;2.092;2022-10-31T14:33:26;20.40;66.10
51559;DHT22;61650;48.882;2.092;2022-10-31T14:36:18;19.90;67.90
51559;DHT22;61650;48.882;2.092;2022-10-31T14:39:03;19.90;67.10
51559;DHT22;61650;48.882;2.092;2022-10-31T14:42:22;19.80;68.10
51559;DHT22;61650;48.882;2.092;2022-10-31T14:47:36;19.40;69.00
51559;DHT22;61650;48.882;2.092;2022-10-31T14:50:59;19.30;69.40
51559;DHT22;61650;48.882;2.092;2022-10-31T14:53:12;19.10;70.60
51559;DHT22;61650;48.882;2.092;2022-10-31T14:55:43;19.00;71.10
51559;DHT22;61650;48.882;2.092;2022-10-31T14:58:17;18.90;71.60
51559;DHT22;61650;48.882;2.092;2022-10-31T15:00:50;18.80;72.00
51559;DHT22;61650;48.882;2.092;2022-10-31T15:03:22;18.80;72.00
51559;DHT22;61650;48.882;2.092;2022-10-31T15:05:51;18.70;72.30
51559;DHT22;61650;48.882;2.092;2022-10-31T15:08:49;18.60;72.60
51559;DHT22;61650;48.882;2.092;2022-10-31T15:11:21;18.60;72.60
51559;DHT22;61650;48.882;2.092;2022-10-31T15:13:49;18.60;72.50
51559;DHT22;61650;48.882;2.092;2022-10-31T15:18:58;18.50;72.60
51559;DHT22;61650;48.882;2.092;2022-10-31T15:21:27;18.50;73.30
51559;DHT22;61650;48.882;2.092;2022-10-31T15:23:57;18.60;72.40
51559;DHT22;61650;48.882;2.092;2022-10-31T15:26:28;18.60;72.60
51559;DHT22;61650;48.882;2.092;2022-10-31T15:29:05;18.50;73.00
51559;DHT22;61650;48.882;2.092;2022-10-31T15:31:31;18.50;73.10
51559;DHT22;61650;48.882;2.092;2022-10-31T15:34:45;18.50;73.00
51559;DHT22;61650;48.882;2.092;2022-10-31T15:36:48;18.40;73.30
51559;DHT22;61650;48.882;2.092;2022-10-31T15:39:20;18.40;73.20
51559;DHT22;61650;48.882;2.092;2022-10-31T15:41:57;18.30;73.50
51559;DHT22;61650;48.882;2.092;2022-10-31T15:44:37;18.20;74.00
51559;DHT22;61650;48.882;2.092;2022-10-31T15:47:17;18.10;74.90
51559;DHT22;61650;48.882;2.092;2022-10-31T15:49:54;18.00;75.00
51559;DHT22;61650;48.882;2.092;2022-10-31T15:52:31;18.00;75.60
51559;DHT22;61650;48.882;2.092;2022-10-31T15:55:04;17.90;75.60
51559;DHT22;61650;48.882;2.092;2022-10-31T15:57:31;17.90;75.10
51559;DHT22;61650;48.882;2.092;2022-10-31T15:59:58;18.00;75.00
51559;DHT22;61650;48.882;2.092;2022-10-31T16:02:26;17.90;75.10
51559;DHT22;61650;48.882;2.092;2022-10-31T16:05:00;17.80;75.40
51559;DHT22;61650;48.882;2.092;2022-10-31T16:07:27;17.80;75.70
51559;DHT22;61650;48.882;2.092;2022-10-31T16:10:00;17.80;75.40
51559;DHT22;61650;48.882;2.092;2022-10-31T16:14:57;17.80;75.60
51559;DHT22;61650;48.882;2.092;2022-10-31T16:17:25;17.80;75.20
51559;DHT22;61650;48.882;2.092;2022-10-31T16:19:57;17.90;74.80
51559;DHT22;61650;48.882;2.092;2022-10-31T16:22:38;17.90;74.70
51559;DHT22;61650;48.882;2.092;2022-10-31T16:25:12;17.80;74.70
51559;DHT22;61650;48.882;2.092;2022-10-31T16:27:39;17.80;74.70
51559;DHT22;61650;48.882;2.092;2022-10-31T16:32:58;17.80;74.70
51559;DHT22;61650;48.882;2.092;2022-10-31T16:35:34;17.70;75.20
51559;DHT22;61650;48.882;2.092;2022-10-31T16:38:01;17.70;75.00
51559;DHT22;61650;48.882;2.092;2022-10-31T16:40:27;17.60;75.50
51559;DHT22;61650;48.882;2.092;2022-10-31T16:42:52;17.60;75.70
51559;DHT22;61650;48.882;2.092;2022-10-31T16:45:23;17.60;75.30
51559;DHT22;61650;48.882;2.092;2022-10-31T16:47:49;17.60;75.10
51559;DHT22;61650;48.882;2.092;2022-10-31T16:50:23;17.60;75.30
51559;DHT22;61650;48.882;2.092;2022-10-31T16:52:49;17.50;76.20
51559;DHT22;61650;48.882;2.092;2022-10-31T16:55:16;17.50;76.40
51559;DHT22;61650;48.882;2.092;2022-10-31T16:57:55;17.50;75.30
51559;DHT22;61650;48.882;2.092;2022-10-31T17:00:25;17.60;75.00
51559;DHT22;61650;48.882;2.092;2022-10-31T17:02:53;17.70;75.10
51559;DHT22;61650;48.882;2.092;2022-10-31T17:05:20;17.50;76.00
51559;DHT22;61650;48.882;2.092;2022-10-31T17:07:46;17.30;77.70
51559;DHT22;61650;48.882;2.092;2022-10-31T17:10:13;16.90;80.40
51559;DHT22;61650;48.882;2.092;2022-10-31T17:12:42;16.70;81.90
51559;DHT22;61650;48.882;2.092;2022-10-31T17:15:23;16.50;85.60
51559;DHT22;61650;48.882;2.092;2022-10-31T17:17:49;16.30;85.80
51559;DHT22;61650;48.882;2.092;2022-10-31T17:20:25;16.10;86.80
51559;DHT22;61650;48.882;2.092;2022-10-31T17:22:51;16.00;88.40
51559;DHT22;61650;48.882;2.092;2022-10-31T17:25:20;15.90;89.80
51559;DHT22;61650;48.882;2.092;2022-10-31T17:27:47;15.80;90.20
51559;DHT22;61650;48.882;2.092;2022-10-31T17:30:14;15.70;90.90
51559;DHT22;61650;48.882;2.092;2022-10-31T17:32:43;15.70;91.10
51559;DHT22;61650;48.882;2.092;2022-10-31T17:35:10;15.70;91.70
51559;DHT22;61650;48.882;2.092;2022-10-31T17:37:35;15.60;92.30
51559;DHT22;61650;48.882;2.092;2022-10-31T17:40:01;15.60;93.20
51559;DHT22;61650;48.882;2.092;2022-10-31T17:42:27;15.60;93.10
51559;DHT22;61650;48.882;2.092;2022-10-31T17:44:53;15.60;92.20
51559;DHT22;61650;48.882;2.092;2022-10-31T17:47:19;15.60;92.70
51559;DHT22;61650;48.882;2.092;2022-10-31T17:49:45;15.60;92.80
51559;DHT22;61650;48.882;2.092;2022-10-31T17:52:10;15.60;93.50
51559;DHT22;61650;48.882;2.092;2022-10-31T17:54:36;15.60;93.50
51559;DHT22;61650;48.882;2.092;2022-10-31T17:57:02;15.60;93.80
51559;DHT22;61650;48.882;2.092;2022-10-31T17:59:27;15.50;94.20
51559;DHT22;61650;48.882;2.092;2022-10-31T18:01:55;15.60;94.40